createdAt,value
2018-08-12T00:00:17.546Z,1006.58
2018-08-12T00:01:17.530Z,1006.57
2018-08-12T00:02:17.509Z,1006.56
2018-08-12T00:03:17.492Z,1006.59
2018-08-12T00:04:17.506Z,1006.59
2018-08-12T00:05:17.469Z,1006.59
2018-08-12T00:06:17.447Z,1006.59
2018-08-12T00:07:17.434Z,1006.53
2018-08-12T00:08:17.422Z,1006.52
2018-08-12T00:09:17.436Z,1006.55
2018-08-12T00:10:17.395Z,1006.50
2018-08-12T00:11:17.381Z,1006.52
2018-08-12T00:12:17.364Z,1006.48
2018-08-12T00:13:17.352Z,1006.57
2018-08-12T00:14:17.359Z,1006.52
2018-08-12T00:15:17.377Z,1006.55
2018-08-12T00:16:17.298Z,1006.51
2018-08-12T00:17:17.280Z,1006.54
2018-08-12T00:18:17.268Z,1006.52
2018-08-12T00:19:17.282Z,1006.50
2018-08-12T00:20:17.241Z,1006.46
2018-08-12T00:21:17.230Z,1006.45
2018-08-12T00:22:17.221Z,1006.44
2018-08-12T00:23:17.205Z,1006.46
2018-08-12T00:24:17.219Z,1006.43
2018-08-12T00:25:17.181Z,1006.41
2018-08-12T00:26:17.173Z,1006.40
2018-08-12T00:27:17.168Z,1006.44
2018-08-12T00:28:17.158Z,1006.41
2018-08-12T00:29:17.178Z,1006.37
2018-08-12T00:30:17.150Z,1006.40
2018-08-12T00:31:17.146Z,1006.40
2018-08-12T00:32:17.144Z,1006.40
2018-08-12T00:33:17.137Z,1006.34
2018-08-12T00:34:17.158Z,1006.36
2018-08-12T00:35:17.146Z,1006.31
2018-08-12T00:36:17.118Z,1006.38
2018-08-12T00:37:17.112Z,1006.34
2018-08-12T00:38:17.111Z,1006.31
2018-08-12T00:39:17.132Z,1006.31
2018-08-12T00:40:17.095Z,1006.25
2018-08-12T00:41:17.091Z,1006.26
2018-08-12T00:42:17.092Z,1006.28
2018-08-12T00:43:17.081Z,1006.21
2018-08-12T00:44:17.096Z,1006.23
2018-08-12T00:45:17.063Z,1006.22
2018-08-12T00:46:17.056Z,1006.20
2018-08-12T00:47:17.049Z,1006.20
2018-08-12T00:48:17.045Z,1006.22
2018-08-12T00:49:17.065Z,1006.20
2018-08-12T00:50:17.033Z,1006.20
2018-08-12T00:51:19.724Z,1006.20
2018-08-12T00:52:17.031Z,1006.23
2018-08-12T00:53:17.020Z,1006.19
2018-08-12T00:54:17.045Z,1006.17
2018-08-12T00:55:17.015Z,1006.17
2018-08-12T00:56:17.014Z,1006.15
2018-08-12T00:57:17.007Z,1006.15
2018-08-12T00:58:17.003Z,1006.15
2018-08-12T00:59:17.033Z,1006.13
2018-08-12T01:00:17.001Z,1006.14
2018-08-12T01:01:16.994Z,1006.13
2018-08-12T01:02:16.996Z,1006.14
2018-08-12T01:03:16.988Z,1006.07
2018-08-12T01:04:17.013Z,1006.07
2018-08-12T01:05:16.989Z,1006.08
2018-08-12T01:06:16.984Z,1006.11
2018-08-12T01:07:16.984Z,1006.04
2018-08-12T01:08:16.983Z,1006.05
2018-08-12T01:09:16.978Z,1006.02
2018-08-12T01:10:17.009Z,1006.01
2018-08-12T01:11:16.975Z,1005.99
2018-08-12T01:12:16.975Z,1005.97
2018-08-12T01:13:16.975Z,1005.99
2018-08-12T01:14:16.967Z,1005.97
2018-08-12T01:15:16.992Z,1006.01
2018-08-12T01:16:16.964Z,1006.04
2018-08-12T01:17:16.959Z,1005.98
2018-08-12T01:18:16.963Z,1006.00
2018-08-12T01:19:16.955Z,1006.00
2018-08-12T01:20:16.985Z,1005.96
2018-08-12T01:21:16.952Z,1006.01
2018-08-12T01:22:16.952Z,1006.02
2018-08-12T01:23:16.949Z,1006.00
2018-08-12T01:24:16.953Z,1006.02
2018-08-12T01:25:16.976Z,1006.12
2018-08-12T01:26:16.949Z,1006.10
2018-08-12T01:27:16.954Z,1006.04
2018-08-12T01:28:16.955Z,1006.01
2018-08-12T01:29:16.957Z,1006.05
2018-08-12T01:30:16.988Z,1006.05
2018-08-12T01:31:16.979Z,1006.04
2018-08-12T01:32:16.970Z,1006.05
2018-08-12T01:33:16.979Z,1006.05
2018-08-12T01:34:16.986Z,1006.02
2018-08-12T01:35:17.022Z,1006.01
2018-08-12T01:36:17.007Z,1006.00
2018-08-12T01:37:17.028Z,1006.05
2018-08-12T01:38:17.035Z,1006.04
2018-08-12T01:39:17.041Z,1006.03
2018-08-12T01:40:17.081Z,1006.03
2018-08-12T01:41:17.060Z,1005.99
2018-08-12T01:42:17.072Z,1005.97
2018-08-12T01:43:17.095Z,1005.99
2018-08-12T01:44:17.100Z,1005.94
2018-08-12T01:45:17.139Z,1005.95
2018-08-12T01:46:17.131Z,1005.93
2018-08-12T01:47:17.147Z,1005.92
2018-08-12T01:48:17.160Z,1005.91
2018-08-12T01:49:17.179Z,1005.87
2018-08-12T01:50:17.209Z,1005.85
2018-08-12T01:51:17.201Z,1005.87
2018-08-12T01:52:17.253Z,1005.89
2018-08-12T01:53:17.222Z,1005.86
2018-08-12T01:54:17.228Z,1005.86
2018-08-12T01:55:17.264Z,1005.86
2018-08-12T01:56:17.244Z,1005.83
2018-08-12T01:57:17.249Z,1005.87
2018-08-12T01:58:17.260Z,1005.84
2018-08-12T01:59:17.274Z,1005.83
2018-08-12T02:00:17.304Z,1005.81
2018-08-12T02:01:17.298Z,1005.84
2018-08-12T02:02:17.297Z,1005.83
2018-08-12T02:03:17.315Z,1005.79
2018-08-12T02:04:17.325Z,1005.78
2018-08-12T02:05:17.358Z,1005.78
2018-08-12T02:06:17.340Z,1005.78
2018-08-12T02:07:17.352Z,1005.75
2018-08-12T02:08:17.359Z,1005.73
2018-08-12T02:09:17.365Z,1005.72
2018-08-12T02:10:17.412Z,1005.74
2018-08-12T02:11:17.391Z,1005.71
2018-08-12T02:12:17.402Z,1005.72
2018-08-12T02:13:17.413Z,1005.69
2018-08-12T02:14:17.422Z,1005.68
2018-08-12T02:15:17.463Z,1005.65
2018-08-12T02:16:17.448Z,1005.66
2018-08-12T02:17:17.463Z,1005.64
2018-08-12T02:18:17.471Z,1005.63
2018-08-12T02:19:17.495Z,1005.58
2018-08-12T02:20:17.520Z,1005.60
2018-08-12T02:21:17.515Z,1005.60
2018-08-12T02:22:17.521Z,1005.57
2018-08-12T02:23:17.529Z,1005.55
2018-08-12T02:24:17.540Z,1005.54
2018-08-12T02:25:17.582Z,1005.54
2018-08-12T02:26:17.561Z,1005.52
2018-08-12T02:27:17.572Z,1005.47
2018-08-12T02:28:17.589Z,1005.47
2018-08-12T02:29:17.606Z,1005.47
2018-08-12T02:30:17.634Z,1005.46
2018-08-12T02:31:17.640Z,1005.43
2018-08-12T02:32:17.621Z,1005.42
2018-08-12T02:33:17.633Z,1005.37
2018-08-12T02:34:17.644Z,1005.38
2018-08-12T02:35:17.653Z,1005.36
2018-08-12T02:36:17.694Z,1005.35
2018-08-12T02:37:17.676Z,1005.35
2018-08-12T02:38:17.685Z,1005.38
2018-08-12T02:39:17.704Z,1005.35
2018-08-12T02:40:17.712Z,1005.31
2018-08-12T02:41:17.759Z,1005.33
2018-08-12T02:42:17.743Z,1005.33
2018-08-12T02:43:17.755Z,1005.36
2018-08-12T02:44:17.777Z,1005.34
2018-08-12T02:45:17.780Z,1005.34
2018-08-12T02:46:17.821Z,1005.31
2018-08-12T02:47:17.810Z,1005.31
2018-08-12T02:48:17.826Z,1005.35
2018-08-12T02:49:17.841Z,1005.34
2018-08-12T02:50:17.857Z,1005.34
2018-08-12T02:51:17.897Z,1005.31
2018-08-12T02:52:17.882Z,1005.28
2018-08-12T02:53:17.891Z,1005.30
2018-08-12T02:54:17.909Z,1005.28
2018-08-12T02:55:17.922Z,1005.23
2018-08-12T02:56:17.970Z,1005.22
2018-08-12T02:57:17.944Z,1005.24
2018-08-12T02:58:17.953Z,1005.21
2018-08-12T02:59:17.964Z,1005.22
2018-08-12T03:00:17.976Z,1005.20
2018-08-12T03:01:18.017Z,1005.20
2018-08-12T03:02:18.004Z,1005.18
2018-08-12T03:03:18.025Z,1005.18
2018-08-12T03:04:18.034Z,1005.13
2018-08-12T03:05:18.048Z,1005.11
2018-08-12T03:06:18.086Z,1005.14
2018-08-12T03:07:18.093Z,1005.14
2018-08-12T03:08:18.087Z,1005.16
2018-08-12T03:09:18.103Z,1005.12
2018-08-12T03:10:18.120Z,1005.14
2018-08-12T03:11:18.159Z,1005.11
2018-08-12T03:12:18.146Z,1005.12
2018-08-12T03:13:18.159Z,1005.11
2018-08-12T03:14:18.169Z,1005.10
2018-08-12T03:15:18.186Z,1005.07
2018-08-12T03:16:18.221Z,1005.06
2018-08-12T03:17:18.200Z,1005.04
2018-08-12T03:18:18.220Z,1005.03
2018-08-12T03:19:18.227Z,1005.01
2018-08-12T03:20:18.233Z,1005.02
2018-08-12T03:21:18.274Z,1005.00
2018-08-12T03:22:18.295Z,1004.99
2018-08-12T03:23:18.266Z,1005.02
2018-08-12T03:24:18.280Z,1005.01
2018-08-12T03:25:18.292Z,1005.04
2018-08-12T03:26:18.327Z,1005.04
2018-08-12T03:27:18.315Z,1005.09
2018-08-12T03:28:18.340Z,1005.10
2018-08-12T03:29:18.349Z,1005.10
2018-08-12T03:30:18.463Z,1005.13
2018-08-12T03:31:18.417Z,1005.11
2018-08-12T03:32:18.405Z,1005.15
2018-08-12T03:33:18.435Z,1005.15
2018-08-12T03:34:18.441Z,1005.17
2018-08-12T03:35:18.455Z,1005.13
2018-08-12T03:36:18.591Z,1005.11
2018-08-12T03:37:18.488Z,1005.12
2018-08-12T03:38:18.504Z,1005.09
2018-08-12T03:39:18.520Z,1005.10
2018-08-12T03:40:18.538Z,1005.09
2018-08-12T03:41:18.558Z,1005.11
2018-08-12T03:42:18.607Z,1005.09
2018-08-12T03:43:18.602Z,1005.09
2018-08-12T03:44:18.620Z,1005.12
2018-08-12T03:45:18.636Z,1005.07
2018-08-12T03:46:18.653Z,1005.09
2018-08-12T03:47:18.702Z,1005.08
2018-08-12T03:48:18.696Z,1005.04
2018-08-12T03:49:18.716Z,1005.02
2018-08-12T03:50:18.739Z,1005.03
2018-08-12T03:51:18.760Z,1004.97
2018-08-12T03:52:18.809Z,1005.08
2018-08-12T03:53:18.798Z,1005.08
2018-08-12T03:54:18.820Z,1005.06
2018-08-12T03:55:18.835Z,1005.06
2018-08-12T03:56:18.855Z,1005.07
2018-08-12T03:57:18.902Z,1005.07
2018-08-12T03:58:18.890Z,1005.06
2018-08-12T03:59:18.909Z,1005.06
2018-08-12T04:00:18.931Z,1005.04
2018-08-12T04:01:18.946Z,1004.98
2018-08-12T04:02:19.051Z,1004.99
2018-08-12T04:03:18.979Z,1004.95
2018-08-12T04:04:18.998Z,1004.96
2018-08-12T04:05:19.020Z,1004.96
2018-08-12T04:06:19.040Z,1004.96
2018-08-12T04:07:19.090Z,1004.95
2018-08-12T04:08:19.087Z,1004.95
2018-08-12T04:09:19.105Z,1004.94
2018-08-12T04:10:19.134Z,1004.95
2018-08-12T04:11:19.162Z,1004.94
2018-08-12T04:12:19.197Z,1004.93
2018-08-12T04:13:19.191Z,1004.95
2018-08-12T04:14:19.211Z,1004.94
2018-08-12T04:15:19.245Z,1004.87
2018-08-12T04:16:19.260Z,1004.95
2018-08-12T04:17:19.306Z,1004.90
2018-08-12T04:18:19.308Z,1004.87
2018-08-12T04:19:19.332Z,1004.89
2018-08-12T04:20:19.357Z,1004.85
2018-08-12T04:21:19.388Z,1004.86
2018-08-12T04:22:19.438Z,1004.84
2018-08-12T04:23:19.432Z,1004.84
2018-08-12T04:24:19.462Z,1004.86
2018-08-12T04:25:19.486Z,1004.86
2018-08-12T04:26:19.520Z,1004.84
2018-08-12T04:27:19.569Z,1004.82
2018-08-12T04:28:19.573Z,1004.83
2018-08-12T04:29:19.599Z,1004.81
2018-08-12T04:30:19.625Z,1004.79
2018-08-12T04:31:19.658Z,1004.82
2018-08-12T04:32:19.700Z,1004.81
2018-08-12T04:33:19.704Z,1004.80
2018-08-12T04:34:19.722Z,1004.83
2018-08-12T04:35:19.742Z,1004.82
2018-08-12T04:36:19.765Z,1004.79
2018-08-12T04:37:19.813Z,1004.75
2018-08-12T04:38:19.811Z,1004.80
2018-08-12T04:39:19.830Z,1004.75
2018-08-12T04:40:19.857Z,1004.76
2018-08-12T04:41:19.877Z,1004.79
2018-08-12T04:42:19.929Z,1004.79
2018-08-12T04:43:19.932Z,1004.82
2018-08-12T04:44:19.961Z,1004.84
2018-08-12T04:45:19.982Z,1004.85
2018-08-12T04:46:20.018Z,1004.84
2018-08-12T04:47:20.079Z,1004.87
2018-08-12T04:48:20.066Z,1004.81
2018-08-12T04:49:20.087Z,1004.80
2018-08-12T04:50:20.108Z,1004.77
2018-08-12T04:51:20.129Z,1004.74
2018-08-12T04:52:20.197Z,1004.75
2018-08-12T04:53:20.183Z,1004.72
2018-08-12T04:54:20.213Z,1004.77
2018-08-12T04:55:20.245Z,1004.68
2018-08-12T04:56:20.270Z,1004.70
2018-08-12T04:57:20.329Z,1004.65
2018-08-12T04:58:20.358Z,1004.68
2018-08-12T04:59:20.355Z,1004.72
2018-08-12T05:00:20.379Z,1004.70
2018-08-12T05:01:20.402Z,1004.68
2018-08-12T05:02:20.438Z,1004.66
2018-08-12T05:03:20.485Z,1004.69
2018-08-12T05:04:20.491Z,1004.67
2018-08-12T05:05:20.523Z,1004.63
2018-08-12T05:06:20.553Z,1004.65
2018-08-12T05:07:20.582Z,1004.62
2018-08-12T05:08:20.639Z,1004.65
2018-08-12T05:09:20.650Z,1004.63
2018-08-12T05:10:20.686Z,1004.57
2018-08-12T05:11:20.707Z,1004.58
2018-08-12T05:12:20.737Z,1004.59
2018-08-12T05:13:20.800Z,1004.59
2018-08-12T05:14:20.811Z,1004.53
2018-08-12T05:15:20.839Z,1004.50
2018-08-12T05:16:20.868Z,1004.53
2018-08-12T05:17:20.900Z,1004.52
2018-08-12T05:18:20.961Z,1004.51
2018-08-12T05:19:20.972Z,1004.52
2018-08-12T05:20:21.001Z,1004.53
2018-08-12T05:21:21.036Z,1004.56
2018-08-12T05:22:21.076Z,1004.52
2018-08-12T05:23:21.156Z,1004.57
2018-08-12T05:24:21.133Z,1004.55
2018-08-12T05:25:21.171Z,1004.53
2018-08-12T05:26:21.204Z,1004.51
2018-08-12T05:27:21.240Z,1004.54
2018-08-12T05:28:21.300Z,1004.51
2018-08-12T05:29:21.308Z,1004.53
2018-08-12T05:30:21.342Z,1004.49
2018-08-12T05:31:21.374Z,1004.54
2018-08-12T05:32:21.412Z,1004.55
2018-08-12T05:33:21.466Z,1004.56
2018-08-12T05:34:21.471Z,1004.55
2018-08-12T05:35:21.501Z,1004.55
2018-08-12T05:36:21.533Z,1004.57
2018-08-12T05:37:21.594Z,1004.56
2018-08-12T05:38:21.635Z,1004.57
2018-08-12T05:39:21.660Z,1004.57
2018-08-12T05:40:21.661Z,1004.55
2018-08-12T05:41:21.689Z,1004.54
2018-08-12T05:42:21.720Z,1004.56
2018-08-12T05:43:21.774Z,1004.57
2018-08-12T05:44:21.774Z,1004.56
2018-08-12T05:45:21.803Z,1004.58
2018-08-12T05:46:21.838Z,1004.56
2018-08-12T05:47:21.858Z,1004.53
2018-08-12T05:48:21.917Z,1004.49
2018-08-12T05:49:21.912Z,1004.48
2018-08-12T05:50:21.938Z,1004.46
2018-08-12T05:51:21.996Z,1004.46
2018-08-12T05:52:21.993Z,1004.44
2018-08-12T05:53:22.045Z,1004.44
2018-08-12T05:54:22.052Z,1004.40
2018-08-12T05:55:22.080Z,1004.39
2018-08-12T05:56:22.112Z,1004.37
2018-08-12T05:57:22.142Z,1004.42
2018-08-12T05:58:22.196Z,1004.43
2018-08-12T05:59:22.202Z,1004.40
2018-08-12T06:00:22.246Z,1004.39
2018-08-12T06:01:22.274Z,1004.41
2018-08-12T06:02:22.301Z,1004.40
2018-08-12T06:03:22.361Z,1004.43
2018-08-12T06:04:22.372Z,1004.49
2018-08-12T06:05:22.396Z,1004.45
2018-08-12T06:06:22.427Z,1004.50
2018-08-12T06:07:22.456Z,1004.43
2018-08-12T06:08:22.772Z,1004.42
2018-08-12T06:09:22.515Z,1004.42
2018-08-12T06:10:22.543Z,1004.40
2018-08-12T06:11:22.568Z,1004.41
2018-08-12T06:12:22.595Z,1004.43
2018-08-12T06:13:22.633Z,1004.38
2018-08-12T06:14:22.675Z,1004.38
2018-08-12T06:15:22.686Z,1004.44
2018-08-12T06:16:22.695Z,1004.40
2018-08-12T06:17:22.777Z,1004.37
2018-08-12T06:18:22.739Z,1004.37
2018-08-12T06:19:22.785Z,1004.31
2018-08-12T06:20:22.787Z,1004.33
2018-08-12T06:21:22.803Z,1004.36
2018-08-12T06:22:22.821Z,1004.29
2018-08-12T06:23:22.842Z,1004.35
2018-08-12T06:24:22.952Z,1004.35
2018-08-12T06:25:22.896Z,1004.40
2018-08-12T06:26:22.927Z,1004.34
2018-08-12T06:27:22.945Z,1004.35
2018-08-12T06:28:22.955Z,1004.34
2018-08-12T06:29:23.003Z,1004.32
2018-08-12T06:30:22.992Z,1004.36
2018-08-12T06:31:23.016Z,1004.39
2018-08-12T06:32:23.033Z,1004.36
2018-08-12T06:33:23.048Z,1004.42
2018-08-12T06:34:23.194Z,1004.39
2018-08-12T06:35:23.099Z,1004.37
2018-08-12T06:36:23.115Z,1004.34
2018-08-12T06:37:23.132Z,1004.35
2018-08-12T06:38:23.151Z,1004.32
2018-08-12T06:39:23.194Z,1004.30
2018-08-12T06:40:23.188Z,1004.27
2018-08-12T06:41:23.206Z,1004.33
2018-08-12T06:42:23.227Z,1004.29
2018-08-12T06:43:23.253Z,1004.30
2018-08-12T06:44:23.282Z,1004.32
2018-08-12T06:45:23.274Z,1004.29
2018-08-12T06:46:23.304Z,1004.26
2018-08-12T06:47:23.306Z,1004.24
2018-08-12T06:48:23.320Z,1004.18
2018-08-12T06:49:23.357Z,1004.19
2018-08-12T06:50:23.339Z,1004.15
2018-08-12T06:51:23.352Z,1004.18
2018-08-12T06:52:23.362Z,1004.14
2018-08-12T06:53:23.375Z,1004.17
2018-08-12T06:54:23.409Z,1004.12
2018-08-12T06:55:23.395Z,1004.13
2018-08-12T06:56:23.417Z,1004.15
2018-08-12T06:57:23.426Z,1004.14
2018-08-12T06:58:23.439Z,1004.14
2018-08-12T06:59:23.480Z,1004.18
2018-08-12T07:00:23.481Z,1004.13
2018-08-12T07:01:23.491Z,1004.14
2018-08-12T07:02:23.508Z,1004.10
2018-08-12T07:03:23.506Z,1004.12
2018-08-12T07:04:23.566Z,1004.11
2018-08-12T07:05:23.523Z,1004.09
2018-08-12T07:06:23.530Z,1004.13
2018-08-12T07:07:23.545Z,1004.11
2018-08-12T07:08:23.545Z,1004.15
2018-08-12T07:09:23.581Z,1004.14
2018-08-12T07:10:23.573Z,1004.15
2018-08-12T07:11:23.551Z,1004.12
2018-08-12T07:12:23.564Z,1004.14
2018-08-12T07:13:23.555Z,1004.15
2018-08-12T07:14:23.648Z,1004.15
2018-08-12T07:15:23.555Z,1004.09
2018-08-12T07:16:23.571Z,1004.16
2018-08-12T07:17:23.553Z,1004.09
2018-08-12T07:18:23.557Z,1004.12
2018-08-12T07:19:23.579Z,1004.09
2018-08-12T07:20:23.544Z,1004.11
2018-08-12T07:21:23.549Z,1004.11
2018-08-12T07:22:23.553Z,1004.11
2018-08-12T07:23:23.555Z,1004.02
2018-08-12T07:24:23.579Z,1004.05
2018-08-12T07:25:23.565Z,1004.01
2018-08-12T07:26:23.545Z,1004.00
2018-08-12T07:27:23.597Z,1003.96
2018-08-12T07:28:23.555Z,1003.95
2018-08-12T07:29:23.617Z,1003.94
2018-08-12T07:30:23.542Z,1003.93
2018-08-12T07:31:23.598Z,1003.91
2018-08-12T07:32:23.535Z,1003.93
2018-08-12T07:33:23.530Z,1003.92
2018-08-12T07:34:23.550Z,1003.92
2018-08-12T07:35:23.541Z,1003.94
2018-08-12T07:36:23.513Z,1003.95
2018-08-12T07:37:23.545Z,1003.92
2018-08-12T07:38:23.513Z,1003.97
2018-08-12T07:39:23.494Z,1003.99
2018-08-12T07:40:23.511Z,1003.95
2018-08-12T07:41:23.484Z,1003.97
2018-08-12T07:42:23.475Z,1003.95
2018-08-12T07:43:23.490Z,1003.97
2018-08-12T07:44:23.464Z,1003.98
2018-08-12T07:45:23.479Z,1003.97
2018-08-12T07:46:23.419Z,1003.94
2018-08-12T07:47:23.408Z,1003.96
2018-08-12T07:48:23.419Z,1003.92
2018-08-12T07:49:23.383Z,1003.91
2018-08-12T07:50:23.394Z,1003.91
2018-08-12T07:51:23.351Z,1003.89
2018-08-12T07:52:23.340Z,1003.89
2018-08-12T07:53:23.324Z,1003.88
2018-08-12T07:54:23.316Z,1003.87
2018-08-12T07:55:23.333Z,1003.87
2018-08-12T07:56:23.290Z,1003.83
2018-08-12T07:57:23.274Z,1003.82
2018-08-12T07:58:23.265Z,1003.87
2018-08-12T07:59:23.257Z,1003.82
2018-08-12T08:00:23.264Z,1003.83
2018-08-12T08:01:23.220Z,1003.83
2018-08-12T08:02:23.214Z,1003.85
2018-08-12T08:03:23.205Z,1003.81
2018-08-12T08:04:23.185Z,1003.85
2018-08-12T08:05:23.193Z,1003.83
2018-08-12T08:06:23.226Z,1003.83
2018-08-12T08:07:23.146Z,1003.79
2018-08-12T08:08:23.113Z,1003.83
2018-08-12T08:09:23.096Z,1003.78
2018-08-12T08:10:23.102Z,1003.80
2018-08-12T08:11:23.074Z,1003.76
2018-08-12T08:12:23.069Z,1003.77
2018-08-12T08:13:23.008Z,1003.76
2018-08-12T08:14:22.991Z,1003.74
2018-08-12T08:15:22.995Z,1003.74
2018-08-12T08:16:22.944Z,1003.73
2018-08-12T08:17:22.923Z,1003.69
2018-08-12T08:18:22.901Z,1003.72
2018-08-12T08:19:22.874Z,1003.74
2018-08-12T08:20:22.878Z,1003.75
2018-08-12T08:21:22.841Z,1003.74
2018-08-12T08:22:22.798Z,1003.69
2018-08-12T08:23:22.763Z,1003.73
2018-08-12T08:24:22.754Z,1003.70
2018-08-12T08:25:22.804Z,1003.69
2018-08-12T08:26:22.678Z,1003.67
2018-08-12T08:27:22.653Z,1003.66
2018-08-12T08:28:22.627Z,1003.69
2018-08-12T08:29:22.595Z,1003.69
2018-08-12T08:30:22.625Z,1003.67
2018-08-12T08:31:22.573Z,1003.63
2018-08-12T08:32:22.503Z,1003.70
2018-08-12T08:33:22.473Z,1003.67
2018-08-12T08:34:22.443Z,1003.72
2018-08-12T08:35:22.459Z,1003.75
2018-08-12T08:36:22.386Z,1003.68
2018-08-12T08:37:22.365Z,1003.68
2018-08-12T08:38:22.335Z,1003.69
2018-08-12T08:39:22.296Z,1003.68
2018-08-12T08:40:22.264Z,1003.65
2018-08-12T08:41:22.263Z,1003.66
2018-08-12T08:42:22.202Z,1003.66
2018-08-12T08:43:22.168Z,1003.63
2018-08-12T08:44:22.147Z,1003.56
2018-08-12T08:45:22.108Z,1003.57
2018-08-12T08:46:22.095Z,1003.52
2018-08-12T08:47:22.037Z,1003.53
2018-08-12T08:48:21.997Z,1003.52
2018-08-12T08:49:21.963Z,1003.51
2018-08-12T08:50:21.925Z,1003.48
2018-08-12T08:51:21.918Z,1003.43
2018-08-12T08:52:21.865Z,1003.48
2018-08-12T08:53:21.875Z,1003.44
2018-08-12T08:54:21.779Z,1003.41
2018-08-12T08:55:21.753Z,1003.41
2018-08-12T08:56:21.758Z,1003.42
2018-08-12T08:57:21.787Z,1003.37
2018-08-12T08:58:21.722Z,1003.39
2018-08-12T08:59:21.703Z,1003.36
2018-08-12T09:00:21.599Z,1003.30
2018-08-12T09:01:21.659Z,1003.33
2018-08-12T09:02:21.518Z,1003.30
2018-08-12T09:03:21.484Z,1003.27
2018-08-12T09:04:21.435Z,1003.25
2018-08-12T09:05:21.417Z,1003.26
2018-08-12T09:06:21.358Z,1003.22
2018-08-12T09:07:21.290Z,1003.23
2018-08-12T09:08:21.423Z,1003.26
2018-08-12T09:09:21.190Z,1003.24
2018-08-12T09:10:21.168Z,1003.24
2018-08-12T09:11:21.139Z,1003.18
2018-08-12T09:12:21.064Z,1003.21
2018-08-12T09:13:21.023Z,1003.19
2018-08-12T09:14:20.978Z,1003.16
2018-08-12T09:15:20.938Z,1003.17
2018-08-12T09:16:20.920Z,1003.17
2018-08-12T09:17:20.847Z,1003.14
2018-08-12T09:18:20.891Z,1003.17
2018-08-12T09:19:20.759Z,1003.15
2018-08-12T09:20:20.705Z,1003.16
2018-08-12T09:21:20.733Z,1003.17
2018-08-12T09:22:20.608Z,1003.17
2018-08-12T09:23:20.559Z,1003.18
2018-08-12T09:24:20.521Z,1003.14
2018-08-12T09:25:20.470Z,1003.14
2018-08-12T09:26:20.457Z,1003.10
2018-08-12T09:27:20.389Z,1003.06
2018-08-12T09:28:20.335Z,1003.04
2018-08-12T09:29:20.279Z,1003.03
2018-08-12T09:30:20.234Z,1002.99
2018-08-12T09:31:20.211Z,1003.03
2018-08-12T09:32:20.129Z,1003.00
2018-08-12T09:33:20.084Z,1002.99
2018-08-12T09:34:20.071Z,1003.00
2018-08-12T09:35:19.976Z,1003.00
2018-08-12T09:36:19.954Z,1002.99
2018-08-12T09:37:19.881Z,1003.01
2018-08-12T09:38:19.825Z,1002.96
2018-08-12T09:39:19.766Z,1002.95
2018-08-12T09:40:19.730Z,1002.95
2018-08-12T09:41:19.695Z,1002.94
2018-08-12T09:42:19.609Z,1002.92
2018-08-12T09:43:19.555Z,1002.91
2018-08-12T09:44:19.502Z,1002.91
2018-08-12T09:45:19.449Z,1002.87
2018-08-12T09:46:19.437Z,1002.86
2018-08-12T09:47:19.340Z,1002.86
2018-08-12T09:48:19.276Z,1002.81
2018-08-12T09:49:19.219Z,1002.78
2018-08-12T09:50:19.159Z,1002.83
2018-08-12T09:51:19.166Z,1002.80
2018-08-12T09:52:19.070Z,1002.83
2018-08-12T09:53:18.996Z,1002.85
2018-08-12T09:54:18.941Z,1002.80
2018-08-12T09:55:18.869Z,1002.80
2018-08-12T09:56:18.812Z,1002.78
2018-08-12T09:57:18.773Z,1002.78
2018-08-12T09:58:18.693Z,1002.77
2018-08-12T09:59:18.622Z,1002.75
2018-08-12T10:00:18.621Z,1002.76
2018-08-12T10:01:18.509Z,1002.68
2018-08-12T10:02:18.464Z,1002.73
2018-08-12T10:03:18.369Z,1002.73
2018-08-12T10:04:18.307Z,1002.74
2018-08-12T10:05:18.232Z,1002.72
2018-08-12T10:06:18.207Z,1002.74
2018-08-12T10:07:18.152Z,1002.76
2018-08-12T10:08:18.081Z,1002.76
2018-08-12T10:09:17.964Z,1002.65
2018-08-12T10:10:17.880Z,1002.63
2018-08-12T10:11:17.813Z,1002.66
2018-08-12T10:12:17.772Z,1002.64
2018-08-12T10:13:17.675Z,1002.65
2018-08-12T10:14:17.597Z,1002.61
2018-08-12T10:15:17.522Z,1002.58
2018-08-12T10:16:17.493Z,1002.55
2018-08-12T10:17:17.412Z,1002.55
2018-08-12T10:18:17.308Z,1002.54
2018-08-12T10:19:17.236Z,1002.56
2018-08-12T10:20:17.177Z,1002.56
2018-08-12T10:21:17.098Z,1002.56
2018-08-12T10:22:17.057Z,1002.61
2018-08-12T10:23:16.959Z,1002.55
2018-08-12T10:24:16.879Z,1002.50
2018-08-12T10:25:16.805Z,1002.54
2018-08-12T10:26:16.747Z,1002.53
2018-08-12T10:27:16.691Z,1002.52
2018-08-12T10:28:16.592Z,1002.49
2018-08-12T10:29:16.666Z,1002.40
2018-08-12T10:30:16.459Z,1002.41
2018-08-12T10:31:16.378Z,1002.40
2018-08-12T10:32:16.334Z,1002.36
2018-08-12T10:33:16.222Z,1002.34
2018-08-12T10:34:16.147Z,1002.34
2018-08-12T10:35:16.091Z,1002.36
2018-08-12T10:36:16.024Z,1002.37
2018-08-12T10:37:15.966Z,1002.34
2018-08-12T10:38:15.869Z,1002.29
2018-08-12T10:39:15.778Z,1002.34
2018-08-12T10:40:15.708Z,1002.31
2018-08-12T10:41:15.635Z,1002.27
2018-08-12T10:42:15.585Z,1002.31
2018-08-12T10:43:15.481Z,1002.32
2018-08-12T10:44:15.436Z,1002.24
2018-08-12T10:45:15.329Z,1002.22
2018-08-12T10:46:15.259Z,1002.21
2018-08-12T10:47:15.202Z,1002.17
2018-08-12T10:48:15.106Z,1002.18
2018-08-12T10:49:15.027Z,1002.19
2018-08-12T10:50:14.948Z,1002.11
2018-08-12T10:51:14.896Z,1002.16
2018-08-12T10:52:14.825Z,1002.06
2018-08-12T10:53:14.726Z,1002.07
2018-08-12T10:54:14.649Z,1002.08
2018-08-12T10:55:14.567Z,1002.10
2018-08-12T10:56:14.478Z,1002.10
2018-08-12T10:57:14.443Z,1002.05
2018-08-12T10:58:14.531Z,1002.03
2018-08-12T10:59:14.277Z,1002.01
2018-08-12T11:00:14.155Z,1001.99
2018-08-12T11:01:14.067Z,1001.98
2018-08-12T11:02:13.982Z,1002.01
2018-08-12T11:03:13.934Z,1001.97
2018-08-12T11:04:13.815Z,1001.94
2018-08-12T11:05:13.743Z,1001.98
2018-08-12T11:06:13.664Z,1002.00
2018-08-12T11:07:13.618Z,1001.94
2018-08-12T11:08:13.511Z,1001.93
2018-08-12T11:09:13.388Z,1001.92
2018-08-12T11:10:13.302Z,1001.87
2018-08-12T11:11:13.222Z,1001.87
2018-08-12T11:12:13.193Z,1001.82
2018-08-12T11:13:13.086Z,1001.78
2018-08-12T11:14:12.954Z,1001.81
2018-08-12T11:15:12.872Z,1001.78
2018-08-12T11:16:12.798Z,1001.80
2018-08-12T11:17:12.700Z,1001.77
2018-08-12T11:18:12.666Z,1001.71
2018-08-12T11:19:12.524Z,1001.73
2018-08-12T11:20:12.430Z,1001.70
2018-08-12T11:21:12.356Z,1001.71
2018-08-12T11:22:12.260Z,1001.72
2018-08-12T11:23:12.197Z,1001.70
2018-08-12T11:24:12.093Z,1001.72
2018-08-12T11:25:12.002Z,1001.72
2018-08-12T11:26:11.909Z,1001.70
2018-08-12T11:27:11.852Z,1001.69
2018-08-12T11:28:11.752Z,1001.66
2018-08-12T11:29:11.637Z,1001.66
2018-08-12T11:30:11.545Z,1001.70
2018-08-12T11:31:11.488Z,1001.62
2018-08-12T11:32:11.372Z,1001.64
2018-08-12T11:33:11.305Z,1001.63
2018-08-12T11:34:11.192Z,1001.61
2018-08-12T11:35:11.095Z,1001.60
2018-08-12T11:36:11.013Z,1001.57
2018-08-12T11:37:10.921Z,1001.55
2018-08-12T11:38:10.875Z,1001.48
2018-08-12T11:39:10.747Z,1001.52
2018-08-12T11:40:10.666Z,1001.47
2018-08-12T11:41:10.620Z,1001.45
2018-08-12T11:42:10.496Z,1001.45
2018-08-12T11:43:10.440Z,1001.40
2018-08-12T11:44:10.318Z,1001.39
2018-08-12T11:45:10.253Z,1001.34
2018-08-12T11:46:10.149Z,1001.34
2018-08-12T11:47:10.070Z,1001.32
2018-08-12T11:48:10.009Z,1001.29
2018-08-12T11:49:09.872Z,1001.25
2018-08-12T11:50:09.782Z,1001.26
2018-08-12T11:51:09.680Z,1001.21
2018-08-12T11:52:09.605Z,1001.25
2018-08-12T11:53:09.531Z,1001.20
2018-08-12T11:54:09.394Z,1001.20
2018-08-12T11:55:09.300Z,1001.18
2018-08-12T11:56:09.188Z,1001.18
2018-08-12T11:57:09.113Z,1001.20
2018-08-12T11:58:09.010Z,1001.20
2018-08-12T11:59:08.886Z,1001.19
2018-08-12T12:00:08.790Z,1001.16
2018-08-12T12:01:08.688Z,1001.17
2018-08-12T12:02:08.577Z,1001.15
2018-08-12T12:03:08.498Z,1001.13
2018-08-12T12:04:08.358Z,1001.16
2018-08-12T12:05:08.264Z,1001.11